Time,TemperatureF,DewpointF,PressureIn,WindDirection,WindDirectionDegrees,WindSpeedMPH,WindSpeedGustMPH,Humidity,HourlyPrecipIn,Conditions,Clouds,dailyrainin,SoftwareType,DateUTC
2013-02-19 00:01:00,42.0,39.0,29.72,SSE,158,8.0,18.0,90,0.00,,,0.37,,2013-02-19 08:01:00,
2013-02-19 00:11:00,42.0,39.0,29.72,SSE,158,8.0,18.0,90,0.00,,,0.37,,2013-02-19 08:11:00,
2013-02-19 00:21:00,41.0,38.0,29.71,SE,145,10.0,20.0,90,0.04,,,0.41,,2013-02-19 08:21:00,
2013-02-19 00:31:00,41.0,38.0,29.70,ESE,115,9.0,16.0,90,0.05,,,0.42,,2013-02-19 08:31:00,
2013-02-19 00:42:00,41.0,38.0,29.70,ESE,115,9.0,16.0,90,0.05,,,0.42,,2013-02-19 08:42:00,
2013-02-19 00:52:00,41.0,38.0,29.70,SSE,158,9.0,18.0,90,0.05,,,0.42,,2013-02-19 08:52:00,
2013-02-19 01:01:00,41.0,38.0,29.68,SSE,162,9.0,15.0,90,0.03,,,0.42,,2013-02-19 09:01:00,
2013-02-19 01:11:00,41.0,38.0,29.68,SSE,162,9.0,15.0,90,0.03,,,0.42,,2013-02-19 09:11:00,
2013-02-19 01:21:00,41.0,38.0,29.68,SSE,162,9.0,15.0,90,0.03,,,0.42,,2013-02-19 09:21:00,
2013-02-19 01:31:00,42.0,39.0,29.68,SE,146,11.0,21.0,89,0.01,,,0.42,,2013-02-19 09:31:00,
2013-02-19 01:41:00,42.0,39.0,29.68,SE,146,11.0,21.0,89,0.01,,,0.42,,2013-02-19 09:41:00,
2013-02-19 01:52:00,42.0,39.0,29.68,SE,144,8.0,16.0,89,0.00,,,0.42,,2013-02-19 09:52:00,
2013-02-19 02:01:00,42.0,39.0,29.68,South,191,11.0,18.0,89,0.00,,,0.42,,2013-02-19 10:01:00,
2013-02-19 02:11:00,42.0,39.0,29.68,South,191,11.0,18.0,89,0.00,,,0.42,,2013-02-19 10:11:00,
2013-02-19 02:21:00,42.0,39.0,29.68,SSW,209,17.0,24.0,90,0.04,,,0.46,,2013-02-19 10:21:00,
2013-02-19 02:31:00,42.0,39.0,29.67,SSE,168,5.0,19.0,90,0.07,,,0.49,,2013-02-19 10:31:00,
2013-02-19 02:41:00,42.0,39.0,29.67,SSE,168,5.0,19.0,90,0.07,,,0.49,,2013-02-19 10:41:00,
2013-02-19 02:51:00,41.0,38.0,29.67,SSE,147,5.0,12.0,90,0.10,,,0.52,,2013-02-19 10:51:00,
2013-02-19 03:01:00,40.0,38.0,29.67,SSE,152,4.0,12.0,91,0.12,,,0.54,,2013-02-19 11:01:00,
2013-02-19 03:11:00,40.0,38.0,29.67,SSE,152,4.0,12.0,91,0.12,,,0.54,,2013-02-19 11:11:00,
2013-02-19 03:21:00,41.0,39.0,29.67,SSE,164,6.0,12.0,91,0.11,,,0.56,,2013-02-19 11:21:00,
2013-02-19 03:32:00,40.0,38.0,29.67,SSW,198,10.0,13.0,91,0.10,,,0.59,,2013-02-19 11:32:00,
2013-02-19 03:42:00,40.0,38.0,29.67,SSW,198,10.0,13.0,91,0.10,,,0.59,,2013-02-19 11:42:00,
2013-02-19 03:52:00,40.0,38.0,29.66,SSW,196,6.0,10.0,91,0.09,,,0.61,,2013-02-19 11:52:00,
2013-02-19 04:01:00,39.0,37.0,29.66,South,181,4.0,11.0,91,0.08,,,0.62,,2013-02-19 12:01:00,
2013-02-19 04:12:00,39.0,37.0,29.66,South,181,4.0,11.0,91,0.08,,,0.62,,2013-02-19 12:12:00,
2013-02-19 04:21:00,39.0,37.0,29.66,SW,215,6.0,9.0,91,0.06,,,0.63,,2013-02-19 12:21:00,
2013-02-19 04:32:00,39.0,37.0,29.66,SSE,149,1.0,6.0,91,0.04,,,0.63,,2013-02-19 12:32:00,
2013-02-19 04:42:00,39.0,37.0,29.66,SSE,149,1.0,6.0,91,0.04,,,0.63,,2013-02-19 12:42:00,
2013-02-19 04:52:00,39.0,37.0,29.65,South,185,2.0,5.0,92,0.02,,,0.63,,2013-02-19 12:52:00,
2013-02-19 05:01:00,39.0,37.0,29.65,South,191,0.0,6.0,92,0.01,,,0.63,,2013-02-19 13:01:00,
2013-02-19 05:11:00,39.0,37.0,29.65,South,191,0.0,6.0,92,0.01,,,0.63,,2013-02-19 13:11:00,
2013-02-19 05:22:00,38.0,36.0,29.65,South,191,0.0,0.0,92,0.01,,,0.64,,2013-02-19 13:22:00,
2013-02-19 05:31:00,39.0,37.0,29.66,SW,227,5.0,7.0,92,0.01,,,0.64,,2013-02-19 13:31:00,
2013-02-19 05:41:00,39.0,37.0,29.66,SW,227,5.0,7.0,92,0.01,,,0.64,,2013-02-19 13:41:00,
2013-02-19 05:52:00,39.0,37.0,29.65,SE,128,1.0,8.0,92,0.01,,,0.64,,2013-02-19 13:52:00,
2013-02-19 06:01:00,39.0,37.0,29.65,East,94,5.0,9.0,92,0.01,,,0.64,,2013-02-19 14:01:00,
2013-02-19 06:11:00,39.0,37.0,29.65,East,94,5.0,9.0,92,0.01,,,0.64,,2013-02-19 14:11:00,
2013-02-19 06:21:00,39.0,37.0,29.66,ENE,77,4.0,10.0,92,0.00,,,0.64,,2013-02-19 14:21:00,
2013-02-19 06:32:00,39.0,37.0,29.66,ESE,119,5.0,10.0,92,0.00,,,0.64,,2013-02-19 14:32:00,
2013-02-19 06:41:00,39.0,37.0,29.66,ESE,119,5.0,10.0,92,0.00,,,0.64,,2013-02-19 14:41:00,
2013-02-19 06:52:00,39.0,37.0,29.66,East,81,3.0,7.0,92,0.00,,,0.64,,2013-02-19 14:52:00,
2013-02-19 07:01:00,39.0,37.0,29.67,East,90,4.0,7.0,92,0.00,,,0.64,,2013-02-19 15:01:00,
2013-02-19 07:11:00,39.0,37.0,29.67,East,90,4.0,7.0,92,0.00,,,0.64,,2013-02-19 15:11:00,
2013-02-19 07:21:00,39.0,37.0,29.67,ENE,64,1.0,7.0,92,0.00,,,0.64,,2013-02-19 15:21:00,
2013-02-19 07:31:00,39.0,37.0,29.67,ESE,103,5.0,8.0,92,0.00,,,0.64,,2013-02-19 15:31:00,
2013-02-19 07:42:00,39.0,37.0,29.67,ESE,103,5.0,8.0,92,0.00,,,0.64,,2013-02-19 15:42:00,
2013-02-19 07:52:00,39.0,37.0,29.68,East,84,7.0,11.0,93,0.00,,,0.64,,2013-02-19 15:52:00,
2013-02-19 08:01:00,39.0,37.0,29.68,ESE,122,7.0,10.0,93,0.00,,,0.64,,2013-02-19 16:01:00,
2013-02-19 08:11:00,39.0,37.0,29.68,ESE,122,7.0,10.0,93,0.00,,,0.64,,2013-02-19 16:11:00,
2013-02-19 08:21:00,39.0,37.0,29.69,ESE,107,8.0,12.0,92,0.00,,,0.64,,2013-02-19 16:21:00,
2013-02-19 08:31:00,39.0,37.0,29.70,ESE,113,9.0,13.0,92,0.00,,,0.63,,2013-02-19 16:31:00,
2013-02-19 08:41:00,39.0,37.0,29.70,ESE,113,9.0,13.0,92,0.00,,,0.63,,2013-02-19 16:41:00,
2013-02-19 08:51:00,39.0,37.0,29.71,SE,131,9.0,13.0,92,0.00,,,0.63,,2013-02-19 16:51:00,
2013-02-19 09:01:00,40.0,38.0,29.71,ESE,104,7.0,13.0,92,0.00,,,0.63,,2013-02-19 17:01:00,
2013-02-19 09:11:00,40.0,38.0,29.71,ESE,104,7.0,13.0,92,0.00,,,0.63,,2013-02-19 17:11:00,
2013-02-19 09:21:00,40.0,38.0,29.72,SE,130,6.0,11.0,92,0.00,,,0.63,,2013-02-19 17:21:00,
2013-02-19 09:32:00,40.0,38.0,29.73,SE,135,5.0,9.0,92,0.00,,,0.62,,2013-02-19 17:32:00,
2013-02-19 09:41:00,40.0,38.0,29.73,SE,135,5.0,9.0,92,0.00,,,0.62,,2013-02-19 17:41:00,
2013-02-19 09:52:00,40.0,38.0,29.73,ESE,121,6.0,8.0,92,0.00,,,0.62,,2013-02-19 17:52:00,
2013-02-19 10:01:00,41.0,39.0,29.74,East,80,2.0,6.0,92,0.00,,,0.62,,2013-02-19 18:01:00,
2013-02-19 10:11:00,41.0,39.0,29.74,East,80,2.0,6.0,92,0.00,,,0.62,,2013-02-19 18:11:00,
2013-02-19 10:21:00,42.0,40.0,29.75,SSE,154,3.0,7.0,92,0.00,,,0.62,,2013-02-19 18:21:00,
2013-02-19 10:31:00,42.0,39.0,29.76,South,175,3.0,8.0,90,0.00,,,0.62,,2013-02-19 18:31:00,
2013-02-19 10:41:00,42.0,39.0,29.76,South,175,3.0,8.0,90,0.00,,,0.62,,2013-02-19 18:41:00,
2013-02-19 10:51:00,42.0,39.0,29.76,SSE,157,1.0,6.0,89,0.00,,,0.62,,2013-02-19 18:51:00,
2013-02-19 11:01:00,42.0,39.0,29.77,ENE,69,1.0,5.0,88,0.00,,,0.62,,2013-02-19 19:01:00,
2013-02-19 11:11:00,42.0,39.0,29.77,ENE,69,1.0,5.0,88,0.00,,,0.62,,2013-02-19 19:11:00,
2013-02-19 11:21:00,41.0,38.0,29.77,ESE,120,4.0,10.0,88,0.00,,,0.62,,2013-02-19 19:21:00,
2013-02-19 11:31:00,42.0,38.0,29.78,East,92,5.0,8.0,87,0.00,,,0.62,,2013-02-19 19:31:00,
2013-02-19 11:41:00,42.0,38.0,29.78,East,92,5.0,8.0,87,0.00,,,0.62,,2013-02-19 19:41:00,
2013-02-19 11:51:00,44.0,40.0,29.78,NNE,32,4.0,8.0,86,0.00,,,0.62,,2013-02-19 19:51:00,
2013-02-19 12:01:00,43.0,39.0,29.79,South,169,2.0,7.0,85,0.00,,,0.62,,2013-02-19 20:01:00,
2013-02-19 12:11:00,43.0,39.0,29.79,South,169,2.0,7.0,85,0.00,,,0.62,,2013-02-19 20:11:00,
2013-02-19 12:21:00,44.0,40.0,29.79,NNW,348,5.0,7.0,85,0.00,,,0.62,,2013-02-19 20:21:00,
2013-02-19 12:31:00,44.0,40.0,29.80,NW,322,5.0,6.0,86,0.00,,,0.61,,2013-02-19 20:31:00,
2013-02-19 12:41:00,44.0,40.0,29.80,NW,322,5.0,6.0,86,0.00,,,0.61,,2013-02-19 20:41:00,
2013-02-19 12:52:00,45.0,41.0,29.80,NNW,329,4.0,8.0,86,0.00,,,0.61,,2013-02-19 20:52:00,
2013-02-19 13:01:00,44.0,40.0,29.80,NW,305,5.0,8.0,85,0.00,,,0.61,,2013-02-19 21:01:00,
2013-02-19 13:11:00,44.0,40.0,29.80,NW,305,5.0,8.0,85,0.00,,,0.61,,2013-02-19 21:11:00,
2013-02-19 13:21:00,45.0,41.0,29.81,NNW,345,6.0,10.0,86,0.00,,,0.61,,2013-02-19 21:21:00,
2013-02-19 13:31:00,45.0,41.0,29.82,NNW,346,11.0,13.0,86,0.00,,,0.61,,2013-02-19 21:31:00,
2013-02-19 13:42:00,45.0,41.0,29.82,NNW,346,11.0,13.0,86,0.00,,,0.61,,2013-02-19 21:42:00,
2013-02-19 13:51:00,44.0,40.0,29.83,NNW,344,9.0,12.0,87,0.00,,,0.61,,2013-02-19 21:51:00,
2013-02-19 14:01:00,44.0,40.0,29.83,NNW,344,9.0,12.0,87,0.00,,,0.61,,2013-02-19 22:01:00,
2013-02-19 14:11:00,44.0,40.0,29.83,NNW,344,9.0,12.0,87,0.00,,,0.61,,2013-02-19 22:11:00,
2013-02-19 14:21:00,45.0,41.0,29.83,NNW,333,8.0,12.0,86,0.00,,,0.61,,2013-02-19 22:21:00,
2013-02-19 14:32:00,45.0,41.0,29.84,NW,326,8.0,10.0,86,0.00,,,0.60,,2013-02-19 22:32:00,
2013-02-19 14:41:00,45.0,41.0,29.84,NW,326,8.0,10.0,86,0.00,,,0.60,,2013-02-19 22:41:00,
2013-02-19 14:51:00,45.0,41.0,29.85,NNW,344,9.0,12.0,86,0.00,,,0.60,,2013-02-19 22:51:00,
2013-02-19 15:01:00,46.0,42.0,29.85,North,351,10.0,16.0,85,0.00,,,0.60,,2013-02-19 23:01:00,
2013-02-19 15:11:00,46.0,42.0,29.85,North,351,10.0,16.0,85,0.00,,,0.60,,2013-02-19 23:11:00,
2013-02-19 15:21:00,46.0,42.0,29.85,North,2,11.0,14.0,85,0.00,,,0.60,,2013-02-19 23:21:00,
2013-02-19 15:31:00,46.0,42.0,29.86,North,349,11.0,16.0,85,0.00,,,0.60,,2013-02-19 23:31:00,
2013-02-19 15:41:00,46.0,42.0,29.86,North,349,11.0,16.0,85,0.00,,,0.60,,2013-02-19 23:41:00,
2013-02-19 15:52:00,46.0,42.0,29.86,North,349,7.0,12.0,86,0.00,,,0.60,,2013-02-19 23:52:00,
2013-02-19 16:01:00,46.0,42.0,29.87,NNW,341,8.0,13.0,86,0.00,,,0.60,,2013-02-20 00:01:00,
2013-02-19 16:11:00,46.0,42.0,29.87,NNW,341,8.0,13.0,86,0.00,,,0.60,,2013-02-20 00:11:00,
2013-02-19 16:21:00,47.0,43.0,29.87,North,3,10.0,16.0,86,0.00,,,0.60,,2013-02-20 00:21:00,
2013-02-19 16:31:00,47.0,42.0,29.87,North,354,12.0,15.0,84,0.00,,,0.59,,2013-02-20 00:31:00,
2013-02-19 16:41:00,47.0,42.0,29.87,North,354,12.0,15.0,84,0.00,,,0.59,,2013-02-20 00:41:00,
2013-02-19 16:51:00,47.0,42.0,29.87,NNW,348,14.0,17.0,83,0.00,,,0.59,,2013-02-20 00:51:00,
2013-02-19 17:02:00,47.0,42.0,29.88,North,356,15.0,21.0,83,0.00,,,0.59,,2013-02-20 01:02:00,
2013-02-19 17:11:00,47.0,42.0,29.88,North,356,15.0,21.0,83,0.00,,,0.59,,2013-02-20 01:11:00,
2013-02-19 17:21:00,47.0,42.0,29.88,NNW,339,14.0,21.0,83,0.00,,,0.59,,2013-02-20 01:21:00,
2013-02-19 17:31:00,46.0,41.0,29.88,NNW,348,15.0,21.0,84,0.00,,,0.59,,2013-02-20 01:31:00,
2013-02-19 17:41:00,46.0,41.0,29.88,NNW,348,15.0,21.0,84,0.00,,,0.59,,2013-02-20 01:41:00,
2013-02-19 17:51:00,46.0,41.0,29.89,North,350,14.0,19.0,83,0.00,,,0.59,,2013-02-20 01:51:00,
2013-02-19 18:01:00,46.0,41.0,29.89,North,349,15.0,21.0,84,0.00,,,0.59,,2013-02-20 02:01:00,
2013-02-19 18:11:00,46.0,41.0,29.89,North,349,15.0,21.0,84,0.00,,,0.59,,2013-02-20 02:11:00,
2013-02-19 18:21:00,46.0,41.0,29.90,North,356,15.0,19.0,84,0.00,,,0.59,,2013-02-20 02:21:00,
2013-02-19 18:31:00,45.0,40.0,29.91,North,354,14.0,21.0,84,0.00,,,0.55,,2013-02-20 02:31:00,
2013-02-19 18:41:00,45.0,40.0,29.91,North,354,14.0,21.0,84,0.00,,,0.55,,2013-02-20 02:41:00,
2013-02-19 18:52:00,45.0,40.0,29.92,North,351,15.0,18.0,84,0.00,,,0.55,,2013-02-20 02:52:00,
2013-02-19 19:01:00,45.0,40.0,29.93,NNW,335,16.0,19.0,83,0.00,,,0.55,,2013-02-20 03:01:00,
2013-02-19 19:12:00,45.0,40.0,29.93,NNW,335,16.0,19.0,83,0.00,,,0.55,,2013-02-20 03:12:00,
2013-02-19 19:21:00,45.0,40.0,29.93,North,356,14.0,18.0,83,0.00,,,0.55,,2013-02-20 03:21:00,
2013-02-19 19:32:00,45.0,40.0,29.93,North,356,14.0,18.0,83,0.00,,,0.55,,2013-02-20 03:32:00,
2013-02-19 19:41:00,45.0,40.0,29.93,North,356,14.0,18.0,83,0.00,,,0.55,,2013-02-20 03:41:00,
2013-02-19 19:51:00,45.0,40.0,29.95,NNW,347,11.0,15.0,83,0.00,,,0.53,,2013-02-20 03:51:00,
2013-02-19 20:01:00,46.0,41.0,29.96,NNW,336,14.0,16.0,83,0.00,,,0.53,,2013-02-20 04:01:00,
2013-02-19 20:11:00,46.0,41.0,29.96,NNW,336,14.0,16.0,83,0.00,,,0.53,,2013-02-20 04:11:00,
2013-02-19 20:21:00,46.0,41.0,29.96,NNW,339,13.0,17.0,82,0.00,,,0.53,,2013-02-20 04:21:00,
2013-02-19 20:31:00,46.0,41.0,29.96,NNW,339,13.0,17.0,82,0.00,,,0.53,,2013-02-20 04:31:00,
2013-02-19 20:41:00,46.0,41.0,29.96,NNW,339,13.0,17.0,82,0.00,,,0.53,,2013-02-20 04:41:00,
2013-02-19 20:51:00,46.0,41.0,29.97,NNW,333,12.0,19.0,81,0.00,,,0.49,,2013-02-20 04:51:00,
2013-02-19 21:02:00,45.0,40.0,29.97,NE,37,3.0,9.0,81,0.00,,,0.49,,2013-02-20 05:02:00,
2013-02-19 21:12:00,45.0,40.0,29.97,NE,37,3.0,9.0,81,0.00,,,0.49,,2013-02-20 05:12:00,
2013-02-19 21:22:00,45.0,40.0,29.98,NNW,332,5.0,7.0,82,0.00,,,0.49,,2013-02-20 05:22:00,
2013-02-19 21:32:00,44.0,39.0,29.98,NNW,346,3.0,9.0,83,0.00,,,0.40,,2013-02-20 05:32:00,
2013-02-19 21:42:00,44.0,39.0,29.98,NNW,346,3.0,9.0,83,0.00,,,0.40,,2013-02-20 05:42:00,
2013-02-19 21:52:00,44.0,39.0,29.99,NE,34,2.0,6.0,82,0.00,,,0.40,,2013-02-20 05:52:00,
2013-02-19 22:01:00,44.0,39.0,30.00,NNW,327,0.0,3.0,83,0.00,,,0.40,,2013-02-20 06:01:00,
2013-02-19 22:11:00,44.0,39.0,30.00,NNW,327,0.0,3.0,83,0.00,,,0.40,,2013-02-20 06:11:00,
2013-02-19 22:21:00,43.0,38.0,30.00,NNE,25,0.0,3.0,83,0.00,,,0.40,,2013-02-20 06:21:00,
2013-02-19 22:31:00,43.0,38.0,30.01,ESE,104,0.0,3.0,83,0.00,,,0.28,,2013-02-20 06:31:00,
2013-02-19 22:42:00,43.0,38.0,30.01,ESE,104,0.0,3.0,83,0.00,,,0.28,,2013-02-20 06:42:00,
2013-02-19 22:51:00,43.0,38.0,30.01,ENE,69,1.0,3.0,83,0.00,,,0.28,,2013-02-20 06:51:00,
2013-02-19 23:01:00,43.0,38.0,30.01,ENE,61,0.0,0.0,84,0.00,,,0.28,,2013-02-20 07:01:00,
2013-02-19 23:11:00,43.0,38.0,30.01,ENE,61,0.0,0.0,84,0.00,,,0.28,,2013-02-20 07:11:00,
2013-02-19 23:21:00,43.0,38.0,30.01,ENE,71,0.0,0.0,84,0.00,,,0.28,,2013-02-20 07:21:00,
2013-02-19 23:31:00,42.0,38.0,30.02,ENE,68,0.0,0.0,84,0.00,,,0.27,,2013-02-20 07:31:00,
2013-02-19 23:41:00,42.0,38.0,30.02,ENE,68,0.0,0.0,84,0.00,,,0.27,,2013-02-20 07:41:00,
2013-02-19 23:51:00,42.0,38.0,30.02,ENE,68,0.0,2.0,85,0.00,,,0.27,,2013-02-20 07:51:00,